Time;durP1;ratioP1;P1;durP2;ratioP2;P2;SDS_P1;SDS_P2;PMS_P1;PMS_P2;Temp;Humidity;BMP_temperature;BMP_pressure;BME280_temperature;BME280_humidity;BME280_pressure;Samples;Min_cycle;Max_cycle;Signal;HPM_P1;HPM_P2
2021/10/15 00:01:28;;;;;;;9.95;2.40;;;13.10;99.90;;;;;;5102549;27;20113;-78
2021/10/15 00:03:54;;;;;;;17.60;2.92;;;13.10;99.90;;;;;;5087302;28;20421;-78
2021/10/15 00:06:20;;;;;;;10.13;2.70;;;13.10;99.90;;;;;;5088441;28;20043;-78
2021/10/15 00:08:45;;;;;;;8.73;2.53;;;13.10;99.90;;;;;;5104284;28;20516;-77
2021/10/15 00:11:11;;;;;;;4.25;1.98;;;13.10;99.90;;;;;;5091988;28;20596;-78
2021/10/15 00:13:37;;;;;;;12.75;3.05;;;13.10;99.90;;;;;;5105103;28;20055;-78
2021/10/15 00:16:02;;;;;;;10.27;2.63;;;13.10;99.90;;;;;;5106569;28;20121;-78
2021/10/15 00:18:28;;;;;;;8.02;2.17;;;13.10;99.90;;;;;;5098120;28;20066;-78
2021/10/15 00:20:54;;;;;;;7.97;2.13;;;13.10;99.90;;;;;;5082184;28;20095;-78
2021/10/15 00:23:19;;;;;;;7.72;2.20;;;13.10;99.90;;;;;;5104953;28;20039;-77
2021/10/15 00:25:45;;;;;;;10.70;2.20;;;13.10;99.90;;;;;;5089234;28;20069;-78
2021/10/15 00:28:11;;;;;;;7.32;2.40;;;13.10;99.90;;;;;;5105689;28;20099;-78
2021/10/15 00:30:37;;;;;;;8.43;1.98;;;13.10;99.90;;;;;;5104891;28;20044;-78
2021/10/15 00:33:02;;;;;;;14.50;2.40;;;13.10;99.90;;;;;;5090072;28;20051;-79
2021/10/15 00:35:28;;;;;;;12.63;2.58;;;13.10;99.90;;;;;;5098111;28;20520;-78
2021/10/15 00:37:54;;;;;;;9.45;2.17;;;13.00;99.90;;;;;;5081086;28;20039;-78
2021/10/15 00:40:20;;;;;;;11.63;2.25;;;13.00;99.90;;;;;;5104621;28;20056;-78
2021/10/15 00:42:47;;;;;;;13.68;2.22;;;13.00;99.90;;;;;;5105380;28;20032;-78
2021/10/15 00:45:13;;;;;;;9.93;2.47;;;12.90;99.90;;;;;;5080934;28;20036;-78
2021/10/15 00:47:38;;;;;;;17.65;2.83;;;13.00;99.90;;;;;;5103739;28;20050;-78
2021/10/15 00:50:05;;;;;;;12.75;2.83;;;12.90;99.90;;;;;;5090532;28;20040;-78
2021/10/15 00:52:30;;;;;;;9.65;2.10;;;12.90;99.90;;;;;;5083849;28;20152;-78
2021/10/15 00:54:57;;;;;;;9.68;2.22;;;13.00;99.90;;;;;;5103061;28;20077;-78
2021/10/15 00:57:22;;;;;;;11.15;2.50;;;13.00;99.90;;;;;;5097810;28;20397;-78
2021/10/15 00:59:49;;;;;;;16.67;4.22;;;13.00;99.90;;;;;;5090919;28;20044;-78
2021/10/15 01:02:15;;;;;;;6.65;2.15;;;13.00;99.90;;;;;;5093137;28;20051;-78
2021/10/15 01:04:41;;;;;;;6.57;2.10;;;13.10;99.90;;;;;;5084833;28;20032;-78
2021/10/15 01:07:07;;;;;;;16.73;3.08;;;13.00;99.90;;;;;;5089792;28;20052;-78
2021/10/15 01:09:35;;;;;;;5.78;2.13;;;13.10;99.90;;;;;;5085992;28;20036;-78
2021/10/15 01:12:03;;;;;;;5.95;2.55;;;13.10;99.90;;;;;;5094535;28;20063;-78
2021/10/15 01:14:30;;;;;;;23.95;3.13;;;13.10;99.90;;;;;;5096849;28;20077;-78
2021/10/15 01:16:56;;;;;;;9.85;2.33;;;13.10;99.90;;;;;;5084760;28;20567;-78
2021/10/15 01:19:22;;;;;;;10.35;2.70;;;13.10;99.90;;;;;;5083714;28;20493;-78
2021/10/15 01:21:48;;;;;;;11.60;2.78;;;13.10;99.90;;;;;;5087048;28;20115;-79
2021/10/15 01:24:14;;;;;;;6.75;1.85;;;13.10;99.90;;;;;;5084309;28;20040;-78
2021/10/15 01:26:43;;;;;;;6.68;2.40;;;13.10;99.90;;;;;;5084054;28;20048;-78
2021/10/15 01:29:09;;;;;;;7.20;2.45;;;13.10;99.90;;;;;;5087090;28;20052;-78
2021/10/15 01:31:35;;;;;;;12.15;2.53;;;13.10;99.90;;;;;;5085137;28;20172;-78
2021/10/15 01:34:00;;;;;;;5.90;2.28;;;13.10;99.90;;;;;;5084716;28;20048;-78
2021/10/15 01:36:26;;;;;;;12.75;2.75;;;13.10;99.90;;;;;;5083548;28;20039;-78
2021/10/15 01:38:52;;;;;;;14.70;2.72;;;13.10;99.90;;;;;;5084619;28;20498;-78
2021/10/15 01:41:18;;;;;;;9.23;2.50;;;13.00;99.90;;;;;;5084814;28;20052;-78
2021/10/15 01:43:44;;;;;;;13.63;2.78;;;13.00;99.90;;;;;;5085685;28;20078;-78
2021/10/15 01:46:10;;;;;;;10.20;2.72;;;13.00;99.90;;;;;;5084614;28;20048;-78
2021/10/15 01:48:36;;;;;;;12.00;2.65;;;13.00;99.90;;;;;;5083959;28;20051;-78
2021/10/15 01:51:02;;;;;;;9.23;3.38;;;12.90;99.90;;;;;;5084641;28;20043;-77
2021/10/15 01:53:28;;;;;;;13.00;3.13;;;12.90;99.90;;;;;;5083449;28;20051;-77
2021/10/15 01:55:53;;;;;;;15.23;4.07;;;12.90;99.90;;;;;;5085309;28;20592;-78
2021/10/15 01:58:19;;;;;;;11.95;3.20;;;12.90;99.90;;;;;;5088092;28;20078;-78
2021/10/15 02:00:48;;;;;;;9.23;3.25;;;12.90;99.90;;;;;;5070318;28;20078;-78
2021/10/15 02:03:14;;;;;;;5.70;2.83;;;12.90;99.90;;;;;;5091205;28;20096;-78
2021/10/15 02:05:40;;;;;;;5.38;3.05;;;12.90;99.90;;;;;;5071363;28;20048;-79
2021/10/15 02:08:06;;;;;;;9.18;3.38;;;12.90;99.90;;;;;;5088222;28;20051;-78
2021/10/15 02:10:32;;;;;;;6.75;3.20;;;12.90;99.90;;;;;;5087147;28;20076;-78
2021/10/15 02:12:58;;;;;;;10.95;3.85;;;12.90;99.90;;;;;;5108493;28;20118;-78
2021/10/15 02:15:24;;;;;;;17.35;5.00;;;12.90;99.90;;;;;;5107505;28;20070;-78
2021/10/15 02:17:50;;;;;;;10.10;5.40;;;12.80;99.90;;;;;;5108372;28;20127;-78
2021/10/15 02:20:19;;;;;;;18.35;6.85;;;12.80;99.90;;;;;;5125225;27;20082;-78
2021/10/15 02:22:47;;;;;;;16.13;7.22;;;12.80;99.90;;;;;;5107975;28;20043;-78
2021/10/15 02:25:15;;;;;;;21.25;9.02;;;12.80;99.90;;;;;;5091640;28;20031;-78
2021/10/15 02:27:41;;;;;;;19.10;9.68;;;12.90;99.90;;;;;;5107211;28;20074;-78
2021/10/15 02:30:09;;;;;;;21.80;10.20;;;12.90;99.90;;;;;;5091801;28;20036;-79
2021/10/15 02:32:35;;;;;;;18.45;9.20;;;12.90;99.90;;;;;;5107591;28;20393;-78
2021/10/15 02:35:01;;;;;;;22.98;10.30;;;12.90;99.90;;;;;;5076559;28;20047;-78
2021/10/15 02:37:26;;;;;;;24.52;10.30;;;12.90;99.90;;;;;;5073854;28;20048;-78
2021/10/15 02:39:52;;;;;;;26.17;10.75;;;12.90;99.90;;;;;;5091098;28;20556;-78
2021/10/15 02:42:18;;;;;;;24.83;9.30;;;12.90;99.90;;;;;;5090618;28;20477;-78
2021/10/15 02:44:44;;;;;;;17.42;9.57;;;12.90;99.90;;;;;;5107348;28;20069;-78
2021/10/15 02:47:09;;;;;;;17.50;9.90;;;12.90;99.90;;;;;;5091141;28;20089;-78
2021/10/15 02:49:35;;;;;;;17.63;9.90;;;12.90;99.90;;;;;;5089718;28;20043;-78
2021/10/15 02:52:01;;;;;;;23.17;10.02;;;12.90;99.90;;;;;;5107807;28;20036;-78
2021/10/15 02:54:27;;;;;;;19.35;10.48;;;12.90;99.90;;;;;;5106805;28;20040;-78
2021/10/15 02:56:53;;;;;;;17.45;10.20;;;12.90;99.90;;;;;;5107451;28;20081;-78
2021/10/15 02:59:18;;;;;;;21.90;10.90;;;12.90;99.90;;;;;;5090373;28;20031;-78
2021/10/15 03:01:44;;;;;;;21.58;11.30;;;12.90;99.90;;;;;;5107747;28;20056;-78
2021/10/15 03:04:10;;;;;;;19.65;11.10;;;12.90;99.90;;;;;;5107794;28;20115;-78
2021/10/15 03:06:35;;;;;;;24.00;11.13;;;12.90;99.90;;;;;;5089730;28;20462;-78
2021/10/15 03:09:01;;;;;;;25.25;11.40;;;12.90;99.90;;;;;;5089269;28;20044;-78
2021/10/15 03:11:27;;;;;;;20.98;10.70;;;12.90;99.90;;;;;;5096948;28;20154;-78
2021/10/15 03:13:53;;;;;;;22.33;10.40;;;13.00;99.90;;;;;;5107527;28;20039;-78
2021/10/15 03:16:18;;;;;;;22.00;11.35;;;12.90;99.90;;;;;;5106283;28;20039;-78
2021/10/15 03:18:44;;;;;;;25.48;12.10;;;13.00;99.90;;;;;;5108049;28;20048;-78
2021/10/15 03:21:10;;;;;;;27.80;11.18;;;13.00;99.90;;;;;;5106727;28;20040;-77
2021/10/15 03:23:36;;;;;;;19.75;9.88;;;13.00;99.90;;;;;;5089704;28;20035;-77
2021/10/15 03:26:02;;;;;;;20.10;10.30;;;13.00;99.90;;;;;;5107326;28;20070;-78
2021/10/15 03:28:28;;;;;;;18.10;9.73;;;13.00;99.90;;;;;;5106132;28;20122;-78
2021/10/15 03:30:54;;;;;;;15.82;10.10;;;13.00;99.90;;;;;;5090697;28;20119;-78
2021/10/15 03:33:19;;;;;;;22.52;9.35;;;13.10;99.90;;;;;;5083108;28;20094;-78
2021/10/15 03:35:45;;;;;;;16.55;9.10;;;13.10;99.90;;;;;;5099044;28;20096;-78
2021/10/15 03:38:11;;;;;;;20.55;8.48;;;13.10;99.90;;;;;;5088198;28;20054;-78
2021/10/15 03:40:36;;;;;;;15.73;7.93;;;13.10;99.90;;;;;;5096116;28;20522;-78
2021/10/15 03:43:03;;;;;;;22.63;9.02;;;13.10;99.90;;;;;;5106829;28;20070;-78
2021/10/15 03:45:29;;;;;;;18.52;7.50;;;13.10;99.90;;;;;;5106023;28;20044;-77
2021/10/15 03:47:54;;;;;;;26.85;7.78;;;13.20;99.90;;;;;;5089793;28;20048;-78
2021/10/15 03:50:20;;;;;;;24.17;8.30;;;13.20;99.90;;;;;;5072067;28;20591;-77
2021/10/15 03:52:46;;;;;;;18.77;8.57;;;13.20;99.90;;;;;;5107462;28;20096;-77
2021/10/15 03:55:13;;;;;;;36.28;8.25;;;13.20;99.90;;;;;;5100956;28;20047;-78
2021/10/15 03:57:40;;;;;;;17.25;7.55;;;13.20;99.90;;;;;;5096817;28;20497;-78
2021/10/15 04:00:09;;;;;;;21.38;8.02;;;13.20;99.90;;;;;;5105969;28;20043;-78
2021/10/15 04:02:43;;;;;;;16.38;7.35;;;13.20;99.90;;;;;;5106023;28;20047;-78
2021/10/15 04:05:10;;;;;;;19.00;7.80;;;13.20;99.90;;;;;;5106657;28;20104;-78
2021/10/15 04:07:36;;;;;;;25.08;9.02;;;13.10;99.90;;;;;;5104972;28;20051;-78
2021/10/15 04:10:05;;;;;;;18.90;7.28;;;13.20;99.90;;;;;;5103660;28;20160;-78
2021/10/15 04:12:31;;;;;;;19.88;7.57;;;13.20;99.90;;;;;;5088476;28;20072;-78
2021/10/15 04:14:56;;;;;;;24.27;8.02;;;13.10;99.90;;;;;;5123038;27;20458;-78
2021/10/15 04:17:22;;;;;;;20.17;7.28;;;13.10;99.90;;;;;;5089666;28;20047;-78
2021/10/15 04:19:48;;;;;;;22.67;6.90;;;13.10;99.90;;;;;;5105735;28;20043;-78
2021/10/15 04:22:14;;;;;;;19.75;6.47;;;13.10;99.90;;;;;;5089476;28;20047;-78
2021/10/15 04:24:40;;;;;;;17.92;6.45;;;13.10;99.90;;;;;;5103563;28;20458;-78
2021/10/15 04:27:06;;;;;;;18.85;6.05;;;13.10;99.90;;;;;;5106339;28;20047;-78
2021/10/15 04:29:32;;;;;;;20.30;7.10;;;13.10;99.90;;;;;;5087633;28;20050;-79
2021/10/15 04:31:58;;;;;;;17.38;5.72;;;13.10;99.90;;;;;;5089064;28;20043;-79
2021/10/15 04:34:24;;;;;;;25.27;7.53;;;13.10;99.90;;;;;;5090791;28;20036;-80
2021/10/15 04:36:50;;;;;;;20.73;7.15;;;13.00;99.90;;;;;;5106051;28;20089;-80
2021/10/15 04:39:16;;;;;;;18.13;6.95;;;13.00;99.90;;;;;;5105560;28;20043;-80
2021/10/15 04:41:41;;;;;;;19.75;6.82;;;12.90;99.90;;;;;;5088280;28;20070;-81
2021/10/15 04:44:07;;;;;;;25.38;6.97;;;12.90;99.90;;;;;;5088813;28;20591;-81
2021/10/15 04:46:33;;;;;;;18.38;7.28;;;12.80;99.90;;;;;;5087565;28;20032;-82
2021/10/15 04:48:59;;;;;;;23.73;8.13;;;12.80;99.90;;;;;;5088384;28;20150;-81
2021/10/15 04:51:24;;;;;;;25.60;7.47;;;12.70;99.90;;;;;;5104802;28;20093;-80
2021/10/15 04:53:50;;;;;;;21.00;8.05;;;12.70;99.90;;;;;;5105928;28;20505;-80
2021/10/15 04:56:16;;;;;;;24.45;8.32;;;12.60;99.90;;;;;;5087928;28;20046;-80
2021/10/15 04:58:41;;;;;;;25.75;7.57;;;12.50;99.90;;;;;;5087754;28;20067;-80
2021/10/15 05:01:07;;;;;;;40.55;9.15;;;12.50;99.90;;;;;;5081141;28;20558;-80
2021/10/15 05:03:33;;;;;;;15.80;6.82;;;12.50;99.90;;;;;;5087239;28;20404;-79
2021/10/15 05:05:58;;;;;;;10.00;3.63;;;12.40;99.90;;;;;;5071392;28;20042;-79
2021/10/15 05:08:30;;;;;;;10.25;2.13;;;12.30;99.90;;;;;;5104122;28;20078;-79
2021/10/15 05:10:56;;;;;;;10.38;3.05;;;12.20;99.90;;;;;;5075268;28;20035;-79
2021/10/15 05:13:21;;;;;;;14.55;1.30;;;12.00;99.90;;;;;;5087672;28;20640;-79
2021/10/15 05:15:48;;;;;;;18.83;1.60;;;11.90;99.90;;;;;;5105113;28;20039;-79
2021/10/15 05:18:15;;;;;;;18.25;2.25;;;11.70;99.90;;;;;;5088642;28;20040;-78
2021/10/15 05:20:42;;;;;;;13.70;1.85;;;11.60;99.90;;;;;;5103834;28;20036;-78
2021/10/15 05:23:08;;;;;;;22.85;2.00;;;11.30;99.90;;;;;;5090771;28;20035;-78
2021/10/15 05:25:35;;;;;;;16.00;2.30;;;11.20;99.90;;;;;;5104473;28;20464;-79
2021/10/15 05:28:01;;;;;;;30.27;2.22;;;11.10;99.90;;;;;;5120317;27;20135;-79
2021/10/15 05:30:27;;;;;;;29.45;2.15;;;11.00;99.90;;;;;;5104263;28;20048;-79
2021/10/15 05:32:53;;;;;;;26.10;2.50;;;11.00;99.90;;;;;;5105235;28;20370;-79
2021/10/15 05:35:19;;;;;;;28.05;3.13;;;11.00;99.90;;;;;;5089674;28;20043;-78
2021/10/15 05:37:45;;;;;;;24.58;2.05;;;10.80;99.90;;;;;;5108805;28;20075;-78
2021/10/15 05:40:12;;;;;;;8.02;1.45;;;10.60;99.90;;;;;;5109552;28;20173;-78
2021/10/15 05:42:46;;;;;;;18.65;2.10;;;10.50;99.90;;;;;;5107751;28;20047;-79
2021/10/15 05:45:13;;;;;;;18.83;1.60;;;10.50;99.90;;;;;;5077809;28;20050;-79
2021/10/15 05:47:38;;;;;;;21.90;1.83;;;10.30;99.90;;;;;;5108369;28;20043;-79
2021/10/15 05:50:05;;;;;;;13.90;1.38;;;10.20;99.90;;;;;;5108812;28;20039;-79
2021/10/15 05:52:37;;;;;;;19.23;2.25;;;10.20;99.90;;;;;;5108739;28;20050;-78
2021/10/15 05:58:49;;;;;;;24.55;2.20;;;10.30;99.90;;;;;;5099250;28;20044;-78
2021/10/15 06:00:15;;;;;;;32.55;3.65;;;10.40;99.90;;;;;;5105739;28;20053;-78
2021/10/15 06:02:43;;;;;;;36.80;2.78;;;10.40;99.90;;;;;;5108787;28;20141;-79
2021/10/15 06:15:51;;;;;;;36.92;3.58;;;10.40;99.90;;;;;;5095349;28;20039;-78
2021/10/15 06:18:19;;;;;;;21.85;1.95;;;10.50;99.90;;;;;;5102947;28;20557;-77
2021/10/15 06:20:45;;;;;;;25.80;2.22;;;10.40;99.90;;;;;;5099633;28;20044;-78
2021/10/15 06:23:11;;;;;;;23.67;2.25;;;10.30;99.90;;;;;;5106396;28;20120;-77
2021/10/15 06:25:38;;;;;;;24.48;2.60;;;10.30;99.90;;;;;;5106282;28;20044;-78
2021/10/15 06:28:04;;;;;;;27.67;3.83;;;10.40;99.90;;;;;;5102471;28;20032;-79
2021/10/15 06:30:31;;;;;;;37.67;3.60;;;10.30;99.90;;;;;;5100762;28;20036;-79
2021/10/15 06:32:57;;;;;;;42.75;3.33;;;10.40;99.90;;;;;;5101427;28;20086;-79
2021/10/15 06:35:23;;;;;;;27.48;2.55;;;10.40;99.90;;;;;;5103862;28;20075;-79
2021/10/15 06:37:49;;;;;;;41.00;3.17;;;10.40;99.90;;;;;;5093310;28;20048;-79
2021/10/15 06:40:16;;;;;;;28.58;2.92;;;10.40;99.90;;;;;;5087714;28;20032;-79
2021/10/15 06:42:42;;;;;;;20.13;2.22;;;10.40;99.90;;;;;;5086664;28;20044;-78
2021/10/15 06:45:09;;;;;;;15.18;1.33;;;10.20;99.90;;;;;;5103033;28;20100;-78
2021/10/15 06:47:35;;;;;;;7.47;1.17;;;10.10;99.90;;;;;;5095821;28;20375;-78
2021/10/15 06:50:00;;;;;;;20.15;1.45;;;9.90;99.90;;;;;;5088082;28;20052;-78
2021/10/15 06:52:26;;;;;;;12.07;1.30;;;9.80;99.90;;;;;;5086286;28;20044;-78
2021/10/15 06:54:52;;;;;;;17.65;2.78;;;9.90;99.90;;;;;;5087739;28;20417;-78
2021/10/15 06:57:18;;;;;;;6.00;0.85;;;9.80;99.90;;;;;;5086548;28;20044;-78
2021/10/15 06:59:44;;;;;;;12.25;1.60;;;9.90;99.90;;;;;;5093725;28;20067;-78
2021/10/15 07:02:10;;;;;;;14.95;1.80;;;9.80;99.90;;;;;;5098382;28;20047;-78
2021/10/15 07:04:36;;;;;;;11.55;1.48;;;9.90;99.90;;;;;;5071327;28;20050;-78
2021/10/15 07:07:03;;;;;;;17.08;2.25;;;9.90;99.90;;;;;;5106287;28;20097;-78
2021/10/15 07:09:29;;;;;;;13.15;1.60;;;9.90;99.90;;;;;;5093942;28;20047;-78
2021/10/15 07:11:54;;;;;;;18.92;2.05;;;9.90;99.90;;;;;;5091603;28;20051;-78
2021/10/15 07:14:20;;;;;;;12.35;1.55;;;9.80;99.90;;;;;;5087736;28;20044;-78
2021/10/15 07:16:47;;;;;;;17.20;2.35;;;9.80;99.90;;;;;;5102111;28;20067;-78
2021/10/15 07:19:13;;;;;;;14.07;1.95;;;9.90;99.90;;;;;;5093186;28;20058;-79
2021/10/15 07:21:39;;;;;;;25.33;3.92;;;9.80;99.90;;;;;;5103017;28;20039;-78
2021/10/15 07:24:06;;;;;;;17.92;1.80;;;9.80;99.90;;;;;;5105614;28;20115;-77
2021/10/15 07:26:32;;;;;;;22.08;2.38;;;9.80;99.90;;;;;;5098796;28;20052;-77
2021/10/15 07:28:57;;;;;;;17.15;2.47;;;9.80;99.90;;;;;;5087508;28;20076;-78
2021/10/15 07:31:24;;;;;;;13.80;1.63;;;9.80;99.90;;;;;;5086162;28;20528;-78
2021/10/15 07:33:49;;;;;;;14.70;1.83;;;9.80;99.90;;;;;;5103883;27;20040;-78
2021/10/15 07:36:16;;;;;;;11.88;1.83;;;9.90;99.90;;;;;;5097811;28;20481;-77
2021/10/15 07:38:42;;;;;;;27.77;2.97;;;9.90;99.90;;;;;;5099413;28;20305;-77
2021/10/15 07:41:08;;;;;;;38.08;2.53;;;9.80;99.90;;;;;;5104389;28;20046;-77
2021/10/15 07:43:34;;;;;;;23.90;2.00;;;9.80;99.90;;;;;;5091807;28;20364;-77
2021/10/15 07:46:01;;;;;;;12.10;1.98;;;9.80;99.90;;;;;;5086485;28;20040;-78
2021/10/15 07:48:27;;;;;;;22.58;1.67;;;9.80;99.90;;;;;;5085698;28;20059;-81
2021/10/15 07:50:53;;;;;;;20.70;1.90;;;9.80;99.90;;;;;;5107136;28;20408;-77
2021/10/15 07:53:18;;;;;;;14.77;1.75;;;9.80;99.90;;;;;;5102784;28;20043;-78
2021/10/15 07:55:44;;;;;;;16.73;2.30;;;9.80;99.90;;;;;;5101142;28;20043;-78
2021/10/15 07:58:10;;;;;;;21.92;2.33;;;9.80;99.90;;;;;;5101376;28;20074;-78
2021/10/15 08:00:38;;;;;;;17.42;2.35;;;9.90;99.90;;;;;;5100867;28;20058;-78
2021/10/15 08:03:04;;;;;;;16.98;3.17;;;10.00;99.90;;;;;;5103898;28;20594;-78
2021/10/15 08:05:30;;;;;;;14.65;1.50;;;10.10;99.90;;;;;;5081052;28;20083;-78
2021/10/15 08:07:56;;;;;;;22.77;2.90;;;10.20;99.90;;;;;;5087860;28;20059;-78
2021/10/15 08:10:22;;;;;;;22.17;3.15;;;10.30;99.90;;;;;;5099528;28;20184;-78
2021/10/15 08:12:47;;;;;;;37.92;5.38;;;10.30;99.90;;;;;;5100503;28;20691;-78
2021/10/15 08:15:14;;;;;;;15.77;2.33;;;10.50;99.90;;;;;;5103039;28;20047;-78
2021/10/15 08:17:41;;;;;;;25.27;3.38;;;10.70;99.90;;;;;;5074286;28;20051;-78
2021/10/15 08:20:07;;;;;;;14.07;2.05;;;10.70;99.90;;;;;;5072548;28;20035;-78
2021/10/15 08:22:33;;;;;;;23.33;2.85;;;10.80;99.90;;;;;;5096472;28;20098;-78
2021/10/15 08:24:59;;;;;;;16.08;2.30;;;10.80;99.90;;;;;;5105225;28;20039;-78
2021/10/15 08:27:25;;;;;;;18.63;2.90;;;10.60;99.90;;;;;;5101021;28;20138;-78
2021/10/15 08:29:50;;;;;;;23.17;3.45;;;10.60;99.90;;;;;;5099913;28;20127;-78
2021/10/15 08:32:16;;;;;;;28.42;3.35;;;10.50;99.90;;;;;;5083332;28;20058;-78
2021/10/15 08:34:42;;;;;;;17.95;2.90;;;10.60;99.90;;;;;;5098629;28;20050;-78
2021/10/15 08:37:08;;;;;;;26.40;4.85;;;10.70;99.90;;;;;;5080654;28;20079;-77
2021/10/15 08:39:33;;;;;;;20.70;3.35;;;10.80;99.90;;;;;;5094155;28;20039;-77
2021/10/15 08:42:00;;;;;;;32.55;5.55;;;10.90;99.90;;;;;;5084660;28;20184;-77
2021/10/15 08:44:53;;;;;;;19.45;2.55;;;11.00;99.90;;;;;;5103566;28;20043;-78
2021/10/15 08:47:19;;;;;;;18.05;2.20;;;11.00;99.90;;;;;;5094832;28;20497;-78
2021/10/15 08:49:45;;;;;;;19.73;3.13;;;11.00;99.90;;;;;;5102466;28;20043;-78
2021/10/15 08:52:12;;;;;;;18.67;2.58;;;11.00;99.90;;;;;;5087813;28;20071;-78
2021/10/15 08:54:38;;;;;;;12.95;2.47;;;11.00;99.90;;;;;;5096237;28;20040;-78
2021/10/15 08:57:05;;;;;;;28.05;2.58;;;11.10;99.90;;;;;;5090058;28;20047;-78
2021/10/15 08:59:38;;;;;;;26.17;3.55;;;11.20;99.90;;;;;;5103655;28;20059;-77
2021/10/15 09:02:18;;;;;;;15.95;2.63;;;11.30;99.90;;;;;;5094647;28;20051;-77
2021/10/15 09:04:45;;;;;;;32.78;4.38;;;11.40;99.90;;;;;;5097405;28;20123;-77
2021/10/15 09:07:11;;;;;;;23.42;3.60;;;11.40;99.90;;;;;;5095427;28;20078;-77
2021/10/15 09:09:37;;;;;;;26.55;3.53;;;11.60;99.90;;;;;;5087928;28;20047;-77
2021/10/15 09:12:16;;;;;;;26.08;4.32;;;11.50;99.90;;;;;;5106181;28;20052;-77
2021/10/15 09:14:43;;;;;;;18.88;3.22;;;11.50;99.90;;;;;;5104778;28;20143;-78
2021/10/15 09:17:16;;;;;;;18.65;3.05;;;11.50;99.90;;;;;;5088301;28;20097;-78
2021/10/15 09:19:46;;;;;;;26.90;3.90;;;11.60;99.90;;;;;;5085160;28;20516;-78
2021/10/15 09:22:21;;;;;;;20.35;3.00;;;11.60;99.90;;;;;;5104233;28;20071;-78
2021/10/15 09:25:15;;;;;;;26.02;3.25;;;11.70;99.90;;;;;;5097709;28;20043;-78
2021/10/15 09:27:43;;;;;;;24.00;3.75;;;11.70;99.90;;;;;;5082028;28;20063;-78
2021/10/15 09:30:18;;;;;;;34.95;5.05;;;11.80;99.90;;;;;;5104686;28;20445;-78
2021/10/15 09:32:52;;;;;;;26.08;3.70;;;11.80;99.90;;;;;;5100873;28;20051;-77
2021/10/15 09:35:26;;;;;;;27.50;3.70;;;11.80;99.90;;;;;;5100502;28;20104;-78
2021/10/15 09:38:02;;;;;;;27.83;4.10;;;11.80;99.90;;;;;;5102039;28;20050;-77
2021/10/15 09:40:42;;;;;;;24.23;3.13;;;11.90;99.90;;;;;;5092216;28;20035;-77
2021/10/15 09:43:10;;;;;;;26.17;3.97;;;11.80;99.90;;;;;;5103436;28;20040;-78
2021/10/15 09:45:40;;;;;;;31.88;3.42;;;12.00;99.90;;;;;;5111670;28;20132;-78
2021/10/15 09:48:24;;;;;;;26.90;4.45;;;12.20;99.90;;;;;;5101204;28;20032;-77
2021/10/15 09:51:09;;;;;;;25.95;3.00;;;12.30;99.90;;;;;;5085474;28;20071;-78
2021/10/15 09:53:35;;;;;;;23.02;3.35;;;12.30;99.90;;;;;;5096337;28;20521;-78
2021/10/15 09:56:01;;;;;;;20.88;3.78;;;12.40;99.90;;;;;;5102029;28;20048;-78
2021/10/15 09:58:27;;;;;;;26.77;3.47;;;12.50;99.90;;;;;;5080200;28;20052;-80
2021/10/15 10:00:53;;;;;;;26.13;3.58;;;12.60;99.90;;;;;;5103607;28;20434;-79
2021/10/15 10:03:22;;;;;;;23.90;2.78;;;12.60;99.90;;;;;;5103409;28;20039;-79
2021/10/15 10:05:49;;;;;;;31.58;3.92;;;12.60;99.90;;;;;;5096027;28;20036;-78
2021/10/15 10:08:15;;;;;;;24.38;4.22;;;12.50;99.90;;;;;;5085573;28;20088;-78
2021/10/15 10:10:42;;;;;;;14.05;2.47;;;12.40;99.90;;;;;;5086765;28;20191;-78
2021/10/15 10:13:11;;;;;;;21.92;3.28;;;12.30;99.90;;;;;;5093259;28;20048;-79
2021/10/15 10:15:39;;;;;;;27.73;3.25;;;12.30;99.90;;;;;;5097900;28;20040;-78
2021/10/15 10:20:48;;;;;;;32.72;4.80;;;12.50;99.90;;;;;;5094069;28;20052;-79
2021/10/15 10:23:33;;;;;;;22.02;4.38;;;12.50;99.90;;;;;;5098908;28;20486;-78
2021/10/15 10:26:10;;;;;;;24.45;3.90;;;12.60;99.90;;;;;;5098910;28;20039;-78
2021/10/15 10:28:37;;;;;;;27.05;4.38;;;12.60;99.90;;;;;;5069645;28;20044;-78
2021/10/15 10:31:20;;;;;;;25.42;3.67;;;12.70;99.90;;;;;;5089411;28;20051;-79
2021/10/15 10:33:54;;;;;;;22.80;2.72;;;12.90;99.90;;;;;;5087974;28;20044;-79
2021/10/15 10:36:20;;;;;;;24.55;3.22;;;13.00;99.90;;;;;;5086604;28;20862;-79
2021/10/15 10:38:46;;;;;;;18.67;4.28;;;13.00;99.90;;;;;;5106336;27;20048;-79
2021/10/15 10:41:14;;;;;;;15.77;3.15;;;13.00;99.90;;;;;;5086309;28;20040;-79
2021/10/15 10:43:42;;;;;;;18.60;3.17;;;12.90;99.90;;;;;;5085939;28;20039;-79
2021/10/15 10:46:08;;;;;;;23.58;3.83;;;12.80;99.90;;;;;;5085021;28;20047;-80
2021/10/15 10:48:54;;;;;;;16.58;2.63;;;12.70;99.90;;;;;;5091993;28;20512;-79
2021/10/15 10:51:31;;;;;;;21.42;3.30;;;12.60;99.90;;;;;;5087380;28;20043;-79
2021/10/15 10:53:59;;;;;;;20.67;2.97;;;12.60;99.90;;;;;;5103384;28;20050;-79
2021/10/15 10:56:50;;;;;;;15.50;2.63;;;12.70;99.90;;;;;;5106505;28;20036;-80
2021/10/15 10:59:15;;;;;;;;;;;12.80;99.90;;;;;;5100329;28;20047;-80
2021/10/15 11:02:01;;;;;;;22.15;3.15;;;12.90;99.90;;;;;;5079864;28;19935;-79
2021/10/15 11:04:33;;;;;;;22.70;2.38;;;13.00;99.90;;;;;;5103534;28;20043;-79
2021/10/15 11:07:06;;;;;;;20.77;3.95;;;13.00;99.90;;;;;;5104277;28;20837;-80
2021/10/15 11:10:02;;;;;;;24.27;3.47;;;12.90;99.90;;;;;;5095787;28;20078;-80
2021/10/15 11:12:28;;;;;;;24.73;4.65;;;12.70;99.90;;;;;;5100498;28;20059;-79
2021/10/15 11:15:00;;;;;;;21.08;3.58;;;12.60;99.90;;;;;;5098053;28;20036;-80
2021/10/15 11:17:27;;;;;;;22.70;3.92;;;12.60;99.90;;;;;;5104280;28;20281;-80
2021/10/15 11:20:12;;;;;;;15.05;2.72;;;12.70;99.90;;;;;;5100437;28;20032;-80
2021/10/15 11:22:39;;;;;;;22.58;3.03;;;12.70;99.90;;;;;;5101861;28;20572;-80
2021/10/15 11:25:07;;;;;;;20.88;4.35;;;12.70;99.90;;;;;;5110589;27;20371;-81
2021/10/15 11:27:33;;;;;;;21.05;3.40;;;12.80;99.90;;;;;;5085592;28;20044;-81
2021/10/15 11:30:00;;;;;;;17.48;2.90;;;12.90;99.90;;;;;;5102191;28;20043;-79
2021/10/15 11:32:36;;;;;;;24.63;4.78;;;13.00;99.90;;;;;;5067287;28;20036;-79
2021/10/15 11:35:16;;;;;;;25.15;4.55;;;13.00;99.90;;;;;;5102924;28;20126;-79
2021/10/15 11:37:53;;;;;;;22.80;2.78;;;13.20;99.90;;;;;;5108643;27;20040;-79
2021/10/15 11:40:21;;;;;;;23.70;3.45;;;13.30;99.90;;;;;;5103382;28;20036;-79
2021/10/15 11:42:48;;;;;;;15.18;2.45;;;13.30;99.90;;;;;;5096111;28;20445;-79
2021/10/15 11:45:44;;;;;;;17.38;2.50;;;13.20;99.90;;;;;;5081628;28;20059;-79
2021/10/15 11:48:14;;;;;;;29.33;3.50;;;13.20;99.90;;;;;;5100446;28;20449;-79
2021/10/15 11:50:43;;;;;;;14.13;2.58;;;13.20;99.90;;;;;;5086518;28;20433;-78
2021/10/15 11:53:11;;;;;;;18.08;3.10;;;13.30;99.90;;;;;;5102944;28;20044;-79
2021/10/15 11:55:40;;;;;;;17.65;2.35;;;13.40;99.90;;;;;;5103689;28;20424;-79
2021/10/15 11:58:14;;;;;;;15.48;3.13;;;13.50;99.90;;;;;;5100298;28;20046;-79
2021/10/15 12:01:01;;;;;;;18.40;3.75;;;13.60;99.90;;;;;;5084611;28;20051;-79
2021/10/15 12:03:29;;;;;;;10.40;2.20;;;13.60;99.90;;;;;;5079929;28;20440;-78
2021/10/15 12:05:56;;;;;;;16.95;1.83;;;13.60;99.90;;;;;;5093153;28;20549;-79
2021/10/15 12:08:23;;;;;;;9.05;1.73;;;13.60;99.90;;;;;;5086046;28;20144;-78
2021/10/15 12:10:50;;;;;;;11.68;2.05;;;13.70;99.90;;;;;;5086564;28;20793;-78
2021/10/15 12:13:18;;;;;;;11.60;2.00;;;13.60;99.90;;;;;;5089462;28;20104;-79
2021/10/15 12:15:43;;;;;;;16.33;2.70;;;13.60;99.90;;;;;;5087070;28;20046;-79
2021/10/15 12:18:10;;;;;;;8.57;1.80;;;13.50;99.90;;;;;;5066762;28;20040;-80
2021/10/15 12:20:36;;;;;;;5.97;1.58;;;13.50;99.90;;;;;;5061400;28;20040;-81
2021/10/15 12:23:04;;;;;;;9.50;1.98;;;14.00;99.90;;;;;;5098746;28;20521;-80
2021/10/15 12:25:30;;;;;;;15.13;2.40;;;14.10;99.90;;;;;;5074519;28;20062;-81
2021/10/15 12:27:55;;;;;;;14.98;1.95;;;14.40;99.90;;;;;;5067641;28;20517;-79
2021/10/15 12:30:25;;;;;;;11.45;1.38;;;14.40;99.90;;;;;;5069164;28;20039;-78
2021/10/15 12:32:52;;;;;;;10.70;1.70;;;14.50;99.90;;;;;;5084661;28;20040;-79
2021/10/15 12:35:22;;;;;;;11.10;2.15;;;14.30;99.90;;;;;;5102494;28;20502;-79
2021/10/15 12:37:59;;;;;;;12.43;1.92;;;14.30;99.90;;;;;;5067137;28;20063;-79
2021/10/15 12:40:34;;;;;;;14.05;2.42;;;14.40;99.90;;;;;;5094758;28;20070;-79
2021/10/15 12:43:03;;;;;;;10.50;1.90;;;14.40;99.90;;;;;;5067862;28;20599;-79
2021/10/15 12:45:34;;;;;;;9.93;2.47;;;14.10;99.90;;;;;;5066039;28;20066;-79
2021/10/15 12:48:09;;;;;;;13.20;2.35;;;14.00;99.90;;;;;;5103339;28;20047;-79
2021/10/15 12:50:37;;;;;;;15.98;2.60;;;13.90;99.90;;;;;;5095692;28;20032;-79
2021/10/15 12:53:17;;;;;;;22.73;4.65;;;14.10;99.90;;;;;;5073963;28;20040;-79
2021/10/15 12:55:48;;;;;;;;;;;14.30;99.90;;;;;;5084584;28;20040;-79
2021/10/15 12:58:14;;;;;;;10.32;1.77;;;14.10;99.90;;;;;;5082050;28;19961;-79